createdAt,value
2022-12-22T00:02:15.114Z,8.39
2022-12-22T00:05:03.187Z,8.38
2022-12-22T00:07:49.430Z,8.39
2022-12-22T00:10:34.696Z,8.40
2022-12-22T00:13:20.096Z,8.40
2022-12-22T00:16:04.987Z,8.41
2022-12-22T00:18:50.802Z,8.40
2022-12-22T00:21:35.709Z,8.40
2022-12-22T00:24:22.211Z,8.44
2022-12-22T00:27:10.736Z,8.39
2022-12-22T00:29:58.472Z,8.38
2022-12-22T00:32:45.402Z,8.41
2022-12-22T00:35:31.225Z,8.37
2022-12-22T00:38:16.597Z,8.36
2022-12-22T00:41:02.826Z,8.37
2022-12-22T00:43:47.878Z,8.36
2022-12-22T00:46:35.688Z,8.36
2022-12-22T00:49:21.628Z,8.36
2022-12-22T00:52:07.670Z,8.38
2022-12-22T00:54:52.623Z,8.34
2022-12-22T00:57:40.257Z,8.32
2022-12-22T01:00:28.375Z,8.38
2022-12-22T01:03:13.667Z,8.43
2022-12-22T01:05:58.888Z,8.37
2022-12-22T01:08:43.777Z,8.36
2022-12-22T01:11:30.542Z,8.37
2022-12-22T01:14:16.965Z,8.36
2022-12-22T01:17:02.466Z,8.38
2022-12-22T01:19:47.209Z,8.39
2022-12-22T01:22:36.714Z,8.42
2022-12-22T01:25:28.370Z,8.45
2022-12-22T01:28:16.722Z,8.45
2022-12-22T01:31:05.077Z,8.50
2022-12-22T01:33:50.353Z,8.46
2022-12-22T01:36:35.224Z,8.47
2022-12-22T01:39:20.065Z,8.47
2022-12-22T01:42:05.220Z,8.48
2022-12-22T01:44:50.156Z,8.50
2022-12-22T01:47:53.266Z,8.51
2022-12-22T01:50:44.143Z,8.52
2022-12-22T01:53:54.360Z,8.54
2022-12-22T01:56:39.404Z,8.55
2022-12-22T01:59:24.172Z,8.55
2022-12-22T02:02:09.579Z,8.55
2022-12-22T02:04:59.192Z,8.56
2022-12-22T02:07:53.829Z,8.56
2022-12-22T02:10:47.282Z,8.57
2022-12-22T02:13:38.722Z,8.56
2022-12-22T02:16:28.226Z,8.49
2022-12-22T02:19:15.973Z,8.44
2022-12-22T02:22:09.125Z,8.46
2022-12-22T02:24:57.222Z,8.44
2022-12-22T02:27:44.763Z,8.55
2022-12-22T02:30:30.482Z,8.50
2022-12-22T02:33:15.351Z,8.48
2022-12-22T02:36:04.124Z,8.48
2022-12-22T02:38:54.194Z,8.46
2022-12-22T02:41:42.916Z,8.51
2022-12-22T02:44:37.606Z,8.48
2022-12-22T02:47:28.322Z,8.45
2022-12-22T02:50:16.799Z,8.43
2022-12-22T02:53:03.024Z,8.44
2022-12-22T02:55:48.913Z,8.42
2022-12-22T02:58:34.708Z,8.44
2022-12-22T03:01:25.390Z,8.41
2022-12-22T03:04:11.633Z,8.43
2022-12-22T03:06:56.489Z,8.44
2022-12-22T03:09:42.726Z,8.45
2022-12-22T03:12:53.426Z,8.54
2022-12-22T03:15:38.724Z,8.53
2022-12-22T03:18:26.565Z,8.49
2022-12-22T03:21:13.285Z,8.50
2022-12-22T03:23:58.724Z,8.50
2022-12-22T03:26:26.256Z,8.50
2022-12-22T03:28:53.661Z,8.54
2022-12-22T03:31:22.129Z,8.54
2022-12-22T03:33:51.450Z,8.57
2022-12-22T03:36:18.929Z,8.57
2022-12-22T03:38:46.433Z,8.60
2022-12-22T03:41:33.999Z,8.64
2022-12-22T03:44:19.018Z,8.62
2022-12-22T03:46:46.557Z,8.61
2022-12-22T03:49:16.667Z,8.61
2022-12-22T03:51:46.202Z,8.60
2022-12-22T03:54:14.754Z,8.63
2022-12-22T03:56:42.837Z,8.63
2022-12-22T03:59:10.376Z,8.61
2022-12-22T04:01:39.854Z,8.61
2022-12-22T04:04:07.466Z,8.62
2022-12-22T04:06:36.347Z,8.62
2022-12-22T04:09:03.948Z,8.64
2022-12-22T04:11:51.691Z,8.64
2022-12-22T04:14:21.343Z,8.66
2022-12-22T04:16:48.893Z,8.68
2022-12-22T04:19:18.177Z,8.69
2022-12-22T04:21:47.437Z,8.68
2022-12-22T04:24:15.057Z,8.69
2022-12-22T04:26:42.582Z,8.70
2022-12-22T04:29:10.070Z,8.71
2022-12-22T04:31:37.745Z,8.72
2022-12-22T04:34:05.175Z,8.73
2022-12-22T04:36:34.711Z,8.73
2022-12-22T04:39:03.810Z,8.75
2022-12-22T04:41:32.695Z,8.74
2022-12-22T04:44:01.696Z,8.74
2022-12-22T04:46:30.180Z,8.73
2022-12-22T04:49:00.268Z,8.74
2022-12-22T04:51:30.225Z,8.75
2022-12-22T04:53:57.746Z,8.73
2022-12-22T04:56:26.591Z,8.72
2022-12-22T04:58:54.025Z,8.72
2022-12-22T05:01:21.582Z,8.73
2022-12-22T05:03:49.913Z,8.72
2022-12-22T05:06:42.704Z,8.72
2022-12-22T05:09:12.451Z,8.72
2022-12-22T05:11:41.208Z,8.72
2022-12-22T05:14:08.734Z,8.72
2022-12-22T05:16:36.209Z,8.75
2022-12-22T05:19:03.794Z,8.74
2022-12-22T05:21:33.481Z,8.72
2022-12-22T05:24:00.912Z,8.72
2022-12-22T05:26:29.184Z,8.72
2022-12-22T05:28:57.975Z,8.72
2022-12-22T05:31:27.803Z,8.72
2022-12-22T05:33:56.828Z,8.71
2022-12-22T05:36:24.290Z,8.71
2022-12-22T05:41:44.964Z,8.72
2022-12-22T05:44:13.797Z,8.73
2022-12-22T05:46:42.723Z,8.74
2022-12-22T05:49:10.225Z,8.74
2022-12-22T05:51:42.214Z,8.75
2022-12-22T05:54:10.750Z,8.76
2022-12-22T05:56:39.121Z,8.75
2022-12-22T05:59:06.603Z,8.75
2022-12-22T06:01:35.414Z,8.76
2022-12-22T06:04:03.275Z,8.76
2022-12-22T06:06:31.729Z,8.77
2022-12-22T06:08:59.799Z,8.77
2022-12-22T06:11:27.348Z,8.78
2022-12-22T06:13:54.867Z,8.78
2022-12-22T06:19:16.720Z,8.79
2022-12-22T06:21:44.179Z,8.77
2022-12-22T06:24:13.717Z,8.77
2022-12-22T06:27:06.733Z,8.76
2022-12-22T06:29:34.836Z,8.76
2022-12-22T06:32:02.279Z,8.76
2022-12-22T06:34:31.704Z,8.75
2022-12-22T06:36:59.711Z,8.72
2022-12-22T06:39:28.109Z,8.70
2022-12-22T06:42:13.709Z,8.68
2022-12-22T06:44:41.213Z,8.67
2022-12-22T06:47:09.215Z,8.67
2022-12-22T06:49:38.061Z,8.66
2022-12-22T06:52:08.712Z,8.66
2022-12-22T06:54:36.762Z,8.65
2022-12-22T06:57:04.249Z,8.65
2022-12-22T06:59:31.716Z,8.64
2022-12-22T07:01:59.936Z,8.64
2022-12-22T07:04:29.767Z,8.64
2022-12-22T07:06:58.648Z,8.64
2022-12-22T07:09:30.152Z,8.64
2022-12-22T07:11:57.649Z,8.65
2022-12-22T07:14:25.065Z,8.66
2022-12-22T07:16:53.149Z,8.66
2022-12-22T07:19:20.817Z,8.66
2022-12-22T07:21:48.906Z,8.67
2022-12-22T07:24:24.874Z,8.68
2022-12-22T07:26:53.365Z,8.69
2022-12-22T07:29:21.122Z,8.70
2022-12-22T07:31:48.658Z,8.70
2022-12-22T07:34:16.282Z,8.72
2022-12-22T07:36:43.825Z,8.72
2022-12-22T07:39:12.288Z,8.73
2022-12-22T07:41:58.837Z,8.73
2022-12-22T07:44:29.847Z,8.74
2022-12-22T07:46:57.363Z,8.75
2022-12-22T07:49:38.771Z,8.77
2022-12-22T07:52:06.386Z,8.78
2022-12-22T07:54:41.116Z,8.78
2022-12-22T07:57:13.778Z,8.79
2022-12-22T07:59:42.388Z,8.81
2022-12-22T08:02:11.434Z,8.81
2022-12-22T08:04:39.203Z,8.83
2022-12-22T08:07:07.000Z,8.83
2022-12-22T08:09:34.490Z,8.85
2022-12-22T08:12:02.107Z,8.85
2022-12-22T08:14:31.826Z,8.88
2022-12-22T08:16:59.310Z,8.88
2022-12-22T08:19:27.868Z,8.90
2022-12-22T08:21:55.293Z,8.91
2022-12-22T08:24:23.728Z,8.92
2022-12-22T08:26:54.342Z,8.94
2022-12-22T08:29:26.756Z,8.95
2022-12-22T08:31:56.568Z,8.96
2022-12-22T08:34:25.698Z,8.98
2022-12-22T08:36:56.882Z,9.00
2022-12-22T08:39:25.653Z,9.03
2022-12-22T08:41:53.427Z,9.04
2022-12-22T08:44:22.779Z,9.05
2022-12-22T08:46:50.397Z,9.08
2022-12-22T08:49:19.724Z,9.08
2022-12-22T08:51:47.404Z,9.12
2022-12-22T08:54:15.093Z,9.12
2022-12-22T08:56:42.571Z,9.15
2022-12-22T08:59:10.579Z,9.16
2022-12-22T09:01:39.216Z,9.16
2022-12-22T09:04:07.688Z,9.19
2022-12-22T09:06:41.144Z,9.18
2022-12-22T09:09:10.713Z,9.19
2022-12-22T09:11:38.222Z,9.21
2022-12-22T09:14:06.164Z,9.24
2022-12-22T09:16:35.119Z,9.27
2022-12-22T09:19:02.785Z,9.29
2022-12-22T09:21:30.456Z,9.30
2022-12-22T09:23:59.718Z,9.31
2022-12-22T09:26:28.352Z,9.34
2022-12-22T09:28:56.451Z,9.37
2022-12-22T09:31:24.849Z,9.37
2022-12-22T09:33:56.745Z,9.40
2022-12-22T09:36:25.461Z,9.42
2022-12-22T09:38:52.964Z,9.43
2022-12-22T09:41:27.365Z,9.43
2022-12-22T09:43:56.352Z,9.48
2022-12-22T09:46:25.152Z,9.47
2022-12-22T09:48:54.741Z,9.43
2022-12-22T09:51:26.809Z,9.46
2022-12-22T09:53:58.197Z,9.52
2022-12-22T09:56:29.185Z,9.52
2022-12-22T09:58:58.115Z,9.54
2022-12-22T10:01:43.607Z,9.56
2022-12-22T10:04:16.329Z,9.61
2022-12-22T10:06:48.892Z,9.57
2022-12-22T10:09:46.035Z,9.51
2022-12-22T10:12:08.390Z,9.55
2022-12-22T10:14:37.357Z,9.49
2022-12-22T10:17:15.765Z,9.51
2022-12-22T10:19:44.850Z,9.53
2022-12-22T10:22:23.288Z,9.55
2022-12-22T10:24:50.814Z,9.62
2022-12-22T10:27:25.840Z,9.62
2022-12-22T10:29:56.091Z,9.60
2022-12-22T10:32:23.774Z,9.63
2022-12-22T10:34:59.886Z,9.63
2022-12-22T10:37:32.458Z,9.63
2022-12-22T10:40:00.567Z,9.65
2022-12-22T10:42:29.411Z,9.62
2022-12-22T10:45:01.739Z,9.64
2022-12-22T10:47:31.148Z,9.67
2022-12-22T10:52:31.969Z,9.71
2022-12-22T10:55:17.002Z,9.73
2022-12-22T10:57:47.724Z,9.75
2022-12-22T11:00:26.697Z,9.78
2022-12-22T11:02:54.868Z,9.77
2022-12-22T11:05:22.852Z,9.76
2022-12-22T11:07:50.465Z,9.74
2022-12-22T11:10:19.678Z,9.70
2022-12-22T11:13:00.720Z,9.68
2022-12-22T11:15:32.664Z,9.65
2022-12-22T11:18:03.475Z,9.63
2022-12-22T11:20:39.062Z,9.61
2022-12-22T11:23:10.572Z,9.64
2022-12-22T11:25:42.725Z,9.67
2022-12-22T11:28:19.029Z,9.62
2022-12-22T11:30:50.854Z,9.66
2022-12-22T11:33:24.899Z,9.66
2022-12-22T11:35:57.780Z,9.70
2022-12-22T11:38:32.850Z,9.68
2022-12-22T11:41:05.488Z,9.69
2022-12-22T11:43:43.849Z,9.70
2022-12-22T11:46:16.760Z,9.72
2022-12-22T11:48:56.425Z,9.74
2022-12-22T11:51:31.849Z,9.70
2022-12-22T11:54:12.900Z,9.70
2022-12-22T11:56:41.875Z,9.71
2022-12-22T11:59:21.495Z,9.76
2022-12-22T12:01:55.851Z,9.75
2022-12-22T12:04:33.879Z,9.75
2022-12-22T12:07:08.953Z,9.73
2022-12-22T12:09:44.318Z,9.69
2022-12-22T12:12:14.095Z,9.70
2022-12-22T12:14:48.838Z,9.65
2022-12-22T12:17:24.851Z,9.58
2022-12-22T12:20:03.651Z,9.54
2022-12-22T12:22:37.484Z,9.48
2022-12-22T12:25:13.766Z,9.43
2022-12-22T12:27:46.969Z,9.45
2022-12-22T12:33:08.361Z,9.47
2022-12-22T12:35:41.492Z,9.46
2022-12-22T12:38:39.512Z,9.47
2022-12-22T12:41:06.680Z,9.40
2022-12-22T12:43:35.780Z,9.39
2022-12-22T12:46:24.564Z,9.32
2022-12-22T12:48:52.102Z,9.35
2022-12-22T12:51:38.244Z,9.30
2022-12-22T12:54:36.439Z,9.31
2022-12-22T12:57:11.541Z,9.24
2022-12-22T12:59:48.682Z,9.21
2022-12-22T13:02:33.281Z,9.18
2022-12-22T13:05:02.176Z,9.17
2022-12-22T13:07:48.848Z,9.17
2022-12-22T13:10:20.248Z,9.15
2022-12-22T13:12:50.967Z,9.16
2022-12-22T13:15:36.218Z,9.14
2022-12-22T13:18:10.082Z,9.13
2022-12-22T13:21:42.083Z,9.12
2022-12-22T13:24:23.653Z,9.09
2022-12-22T13:26:46.141Z,9.07
2022-12-22T13:29:19.840Z,9.08
2022-12-22T13:31:48.817Z,9.05
2022-12-22T13:34:32.839Z,9.01
2022-12-22T13:37:03.486Z,9.01
2022-12-22T13:39:30.927Z,9.03
2022-12-22T13:42:07.327Z,9.04
2022-12-22T13:44:35.169Z,8.99
2022-12-22T13:47:04.224Z,8.99
2022-12-22T13:50:07.052Z,8.96
2022-12-22T13:52:22.502Z,8.92
2022-12-22T13:54:50.187Z,8.96
2022-12-22T13:57:19.611Z,8.90
2022-12-22T13:59:49.041Z,8.85
2022-12-22T14:02:19.844Z,8.84
2022-12-22T14:05:05.495Z,8.83
2022-12-22T14:07:33.802Z,8.86
2022-12-22T14:10:01.293Z,8.74
2022-12-22T14:12:31.003Z,8.73
2022-12-22T14:14:59.719Z,8.72
2022-12-22T14:17:35.718Z,8.69
2022-12-22T14:20:13.496Z,8.67
2022-12-22T14:22:45.849Z,8.64
2022-12-22T14:25:40.714Z,8.62
2022-12-22T14:28:14.016Z,8.57
2022-12-22T14:30:44.750Z,8.50
2022-12-22T14:33:27.846Z,8.52
2022-12-22T14:36:07.504Z,8.47
2022-12-22T14:38:40.035Z,8.44
2022-12-22T14:41:32.423Z,8.49
2022-12-22T14:47:22.812Z,8.40
2022-12-22T14:50:17.792Z,8.36
2022-12-22T14:52:52.760Z,8.33
2022-12-22T14:55:26.303Z,8.29
2022-12-22T14:57:55.787Z,8.28
2022-12-22T15:00:29.609Z,8.26
2022-12-22T15:02:58.302Z,8.24
2022-12-22T15:05:27.194Z,8.23
2022-12-22T15:08:06.536Z,8.23
2022-12-22T15:10:38.210Z,8.21
2022-12-22T15:13:06.809Z,8.18
2022-12-22T15:15:34.910Z,8.16
2022-12-22T15:18:02.826Z,8.12
2022-12-22T15:20:38.700Z,8.09
2022-12-22T15:23:16.594Z,8.04
2022-12-22T15:25:44.137Z,8.00
2022-12-22T15:28:11.569Z,7.96
2022-12-22T15:30:39.437Z,7.92
2022-12-22T15:33:11.563Z,7.86
2022-12-22T15:35:39.026Z,7.87
2022-12-22T15:38:10.982Z,7.82
2022-12-22T15:40:40.647Z,7.72
2022-12-22T15:43:22.341Z,7.69
2022-12-22T15:46:22.447Z,7.62
2022-12-22T15:48:50.119Z,7.59
2022-12-22T15:51:21.859Z,7.54
2022-12-22T15:53:49.581Z,7.49
2022-12-22T15:56:20.156Z,7.47
2022-12-22T15:58:49.861Z,7.43
2022-12-22T16:01:17.656Z,7.46
2022-12-22T16:03:45.336Z,7.41
2022-12-22T16:06:14.101Z,7.41
2022-12-22T16:08:42.866Z,7.39
2022-12-22T16:11:10.836Z,7.37
2022-12-22T16:13:39.669Z,7.36
2022-12-22T16:16:08.942Z,7.32
2022-12-22T16:18:36.435Z,7.30
2022-12-22T16:21:07.937Z,7.28
2022-12-22T16:23:36.990Z,7.27
2022-12-22T16:26:06.221Z,7.26
2022-12-22T16:28:35.200Z,7.24
2022-12-22T16:31:05.493Z,7.22
2022-12-22T16:33:33.473Z,7.19
2022-12-22T16:36:01.739Z,7.15
2022-12-22T16:38:31.071Z,7.14
2022-12-22T16:41:00.746Z,7.14
2022-12-22T16:43:50.444Z,7.08
2022-12-22T16:46:20.967Z,7.06
2022-12-22T16:48:49.724Z,7.07
2022-12-22T16:51:19.140Z,7.07
2022-12-22T16:53:46.939Z,7.09
2022-12-22T16:56:18.971Z,7.08
2022-12-22T16:58:48.769Z,7.13
2022-12-22T17:01:23.893Z,7.13
2022-12-22T17:03:53.848Z,7.10
2022-12-22T17:06:22.028Z,7.10
2022-12-22T17:08:50.758Z,7.11
2022-12-22T17:11:19.975Z,7.11
2022-12-22T17:13:47.631Z,7.08
2022-12-22T17:16:19.554Z,7.08
2022-12-22T17:18:48.710Z,7.07
2022-12-22T17:21:17.456Z,7.04
2022-12-22T17:24:10.561Z,7.03
2022-12-22T17:26:38.841Z,7.04
2022-12-22T17:29:06.769Z,7.04
2022-12-22T17:31:34.365Z,7.04
2022-12-22T17:34:07.063Z,7.06
2022-12-22T17:36:36.854Z,7.11
2022-12-22T17:39:05.130Z,7.11
2022-12-22T17:41:36.758Z,7.11
2022-12-22T17:44:04.261Z,7.09
2022-12-22T17:46:32.876Z,7.11
2022-12-22T17:49:00.379Z,7.13
2022-12-22T17:51:30.215Z,7.14
2022-12-22T17:53:58.638Z,7.18
2022-12-22T17:56:51.553Z,7.22
2022-12-22T17:59:23.151Z,7.22
2022-12-22T18:01:51.970Z,7.23
2022-12-22T18:04:19.749Z,7.27
2022-12-22T18:06:48.844Z,7.31
2022-12-22T18:09:20.526Z,7.31
2022-12-22T18:11:48.066Z,7.33
2022-12-22T18:14:16.123Z,7.34
2022-12-22T18:16:44.780Z,7.36
2022-12-22T18:19:12.757Z,7.38
2022-12-22T18:21:40.173Z,7.41
2022-12-22T18:24:15.346Z,7.46
2022-12-22T18:26:42.869Z,7.46
2022-12-22T18:29:14.206Z,7.46
2022-12-22T18:31:41.782Z,7.48
2022-12-22T18:34:10.055Z,7.55
2022-12-22T18:36:37.953Z,7.55
2022-12-22T18:39:05.731Z,7.56
2022-12-22T18:41:35.575Z,7.58
2022-12-22T18:44:03.221Z,7.59
2022-12-22T18:46:30.768Z,7.64
2022-12-22T18:49:05.266Z,7.60
2022-12-22T18:51:33.489Z,7.62
2022-12-22T18:54:00.961Z,7.65
2022-12-22T18:56:28.462Z,7.68
2022-12-22T18:58:57.383Z,7.69
2022-12-22T19:01:26.678Z,7.68
2022-12-22T19:03:56.282Z,7.71
2022-12-22T19:06:24.084Z,7.69
2022-12-22T19:08:51.754Z,7.68
2022-12-22T19:11:22.681Z,7.74
2022-12-22T19:13:51.917Z,7.83
2022-12-22T19:16:21.926Z,7.84
2022-12-22T19:18:50.057Z,7.82
2022-12-22T19:21:18.504Z,7.88
2022-12-22T19:23:46.081Z,7.92
2022-12-22T19:26:21.783Z,7.87
2022-12-22T19:28:50.264Z,7.88
2022-12-22T19:31:21.674Z,7.80
2022-12-22T19:33:50.625Z,7.79
2022-12-22T19:36:19.534Z,7.84
2022-12-22T19:38:50.450Z,7.86
2022-12-22T19:41:26.853Z,7.90
2022-12-22T19:43:54.439Z,7.91
2022-12-22T19:46:22.427Z,7.90
2022-12-22T19:48:51.248Z,7.93
2022-12-22T19:51:20.004Z,7.94
2022-12-22T19:53:47.472Z,7.91
2022-12-22T19:56:20.693Z,7.95
2022-12-22T19:58:49.511Z,7.99
2022-12-22T20:01:17.143Z,7.94
2022-12-22T20:03:44.917Z,8.05
2022-12-22T20:06:14.690Z,8.02
2022-12-22T20:08:42.405Z,8.12
2022-12-22T20:11:13.640Z,8.06
2022-12-22T20:13:41.791Z,8.04
2022-12-22T20:16:11.966Z,8.05
2022-12-22T20:18:40.238Z,8.08
2022-12-22T20:21:09.056Z,8.11
2022-12-22T20:23:38.858Z,8.16
2022-12-22T20:26:07.764Z,8.14
2022-12-22T20:28:37.198Z,8.16
2022-12-22T20:31:05.204Z,8.24
2022-12-22T20:33:32.771Z,8.22
2022-12-22T20:36:02.406Z,8.26
2022-12-22T20:38:32.228Z,8.30
2022-12-22T20:41:01.175Z,8.32
2022-12-22T20:43:31.120Z,8.34
2022-12-22T20:46:01.533Z,8.37
2022-12-22T20:48:32.749Z,8.39
2022-12-22T20:51:00.411Z,8.42
2022-12-22T20:53:28.409Z,8.45
2022-12-22T20:55:56.587Z,8.49
2022-12-22T20:58:26.981Z,8.50
2022-12-22T21:00:55.474Z,8.55
2022-12-22T21:03:23.997Z,8.59
2022-12-22T21:05:52.426Z,8.58
2022-12-22T21:08:21.413Z,8.61
2022-12-22T21:10:49.864Z,8.67
2022-12-22T21:13:17.940Z,8.67
2022-12-22T21:15:49.902Z,8.70
2022-12-22T21:18:18.457Z,8.74
2022-12-22T21:20:46.904Z,8.77
2022-12-22T21:23:16.367Z,8.81
2022-12-22T21:25:46.788Z,8.83
2022-12-22T21:28:20.033Z,8.89
2022-12-22T21:30:48.905Z,8.91
2022-12-22T21:33:16.411Z,8.96
2022-12-22T21:35:44.036Z,8.99
2022-12-22T21:38:16.628Z,9.04
2022-12-22T21:40:46.573Z,9.10
2022-12-22T21:43:14.304Z,9.11
2022-12-22T21:45:43.692Z,9.19
2022-12-22T21:48:13.776Z,9.20
2022-12-22T21:50:42.184Z,9.28
2022-12-22T21:53:10.039Z,9.32
2022-12-22T21:55:38.895Z,9.33
2022-12-22T21:58:09.014Z,9.33
2022-12-22T22:00:39.960Z,9.40
2022-12-22T22:03:07.870Z,9.40
2022-12-22T22:05:38.216Z,9.43
2022-12-22T22:08:07.114Z,9.46
2022-12-22T22:10:35.552Z,9.48
2022-12-22T22:13:03.549Z,9.52
2022-12-22T22:15:31.400Z,9.54
2022-12-22T22:18:06.198Z,9.56
2022-12-22T22:20:35.559Z,9.59
2022-12-22T22:23:04.518Z,9.63
2022-12-22T22:25:32.130Z,9.64
2022-12-22T22:28:00.388Z,9.66
2022-12-22T22:30:28.933Z,9.71
2022-12-22T22:33:00.840Z,9.71
2022-12-22T22:35:28.872Z,9.74
2022-12-22T22:37:56.342Z,9.77
2022-12-22T22:40:25.553Z,9.81
2022-12-22T22:42:53.122Z,9.79
2022-12-22T22:45:23.681Z,9.84
2022-12-22T22:47:51.812Z,9.87
2022-12-22T22:50:20.367Z,9.85
2022-12-22T22:52:49.751Z,9.88
2022-12-22T22:55:17.871Z,9.88
2022-12-22T22:57:47.756Z,9.90
2022-12-22T23:00:17.772Z,9.92
2022-12-22T23:02:45.973Z,9.98
2022-12-22T23:05:22.246Z,9.95
2022-12-22T23:07:50.286Z,9.96
2022-12-22T23:10:18.772Z,9.93
2022-12-22T23:12:47.795Z,10.00
2022-12-22T23:15:15.562Z,10.00
2022-12-22T23:17:43.045Z,10.00
2022-12-22T23:20:11.250Z,9.99
2022-12-22T23:22:38.858Z,10.01
2022-12-22T23:25:06.620Z,10.04
2022-12-22T23:27:34.097Z,9.98
2022-12-22T23:30:03.487Z,10.02
2022-12-22T23:32:31.757Z,10.04
2022-12-22T23:34:59.233Z,10.00
2022-12-22T23:37:26.706Z,10.00
2022-12-22T23:39:56.172Z,10.02
2022-12-22T23:42:30.071Z,10.04
2022-12-22T23:44:57.853Z,10.07
2022-12-22T23:47:26.606Z,10.02
2022-12-22T23:49:54.809Z,10.07
2022-12-22T23:52:22.213Z,10.03
2022-12-22T23:54:49.767Z,10.01
2022-12-22T23:57:18.247Z,10.02
2022-12-22T23:59:45.907Z,10.03
